sensor_id;sensor_type;location;lat;lon;timestamp;pressure;altitude;pressure_sealevel;temperature;humidity
62800;BME280;48842;51.046;13.796;2024-03-08T00:02:11;100992.75;;;6.94;nan
62800;BME280;48842;51.046;13.796;2024-03-08T00:04:38;100987.44;;;6.91;nan
62800;BME280;48842;51.046;13.796;2024-03-08T00:07:03;100989.06;;;6.87;nan
62800;BME280;48842;51.046;13.796;2024-03-08T00:09:28;100984.63;;;6.85;nan
62800;BME280;48842;51.046;13.796;2024-03-08T00:11:55;100983.59;;;6.78;nan
62800;BME280;48842;51.046;13.796;2024-03-08T00:14:21;100988.66;;;6.73;nan
62800;BME280;48842;51.046;13.796;2024-03-08T00:16:47;100989.41;;;6.69;nan
62800;BME280;48842;51.046;13.796;2024-03-08T00:19:12;100981.41;;;6.63;nan
62800;BME280;48842;51.046;13.796;2024-03-08T00:21:37;100982.16;;;6.59;nan
62800;BME280;48842;51.046;13.796;2024-03-08T00:24:02;100993.28;;;6.55;nan
62800;BME280;48842;51.046;13.796;2024-03-08T00:26:28;100984.50;;;6.51;nan
62800;BME280;48842;51.046;13.796;2024-03-08T00:28:54;100980.94;;;6.47;nan
62800;BME280;48842;51.046;13.796;2024-03-08T00:31:20;100985.16;;;6.44;nan
62800;BME280;48842;51.046;13.796;2024-03-08T00:33:45;100989.47;;;6.43;nan
62800;BME280;48842;51.046;13.796;2024-03-08T00:36:10;100976.31;;;6.39;nan
62800;BME280;48842;51.046;13.796;2024-03-08T00:38:35;100983.22;;;6.37;nan
62800;BME280;48842;51.046;13.796;2024-03-08T00:41:01;100984.00;;;6.34;nan
62800;BME280;48842;51.046;13.796;2024-03-08T00:43:27;100983.91;;;6.31;nan
62800;BME280;48842;51.046;13.796;2024-03-08T00:45:52;100982.94;;;6.29;nan
62800;BME280;48842;51.046;13.796;2024-03-08T00:48:19;100981.19;;;6.28;nan
62800;BME280;48842;51.046;13.796;2024-03-08T00:50:44;100979.38;;;6.25;nan
62800;BME280;48842;51.046;13.796;2024-03-08T00:53:13;100975.78;;;6.22;nan
62800;BME280;48842;51.046;13.796;2024-03-08T00:55:39;100980.88;;;6.19;nan
62800;BME280;48842;51.046;13.796;2024-03-08T00:58:05;100967.72;;;6.14;nan
62800;BME280;48842;51.046;13.796;2024-03-08T01:00:30;100969.38;;;6.10;nan
62800;BME280;48842;51.046;13.796;2024-03-08T01:02:56;100967.53;;;6.08;nan
62800;BME280;48842;51.046;13.796;2024-03-08T01:05:22;100976.13;;;6.05;nan
62800;BME280;48842;51.046;13.796;2024-03-08T01:07:49;100972.66;;;6.05;nan
62800;BME280;48842;51.046;13.796;2024-03-08T01:10:15;100967.31;;;6.00;nan
62800;BME280;48842;51.046;13.796;2024-03-08T01:12:40;100971.47;;;5.97;nan
62800;BME280;48842;51.046;13.796;2024-03-08T01:15:08;100975.69;;;5.93;nan
62800;BME280;48842;51.046;13.796;2024-03-08T01:17:34;100965.19;;;5.90;nan
62800;BME280;48842;51.046;13.796;2024-03-08T01:19:59;100963.38;;;5.87;nan
62800;BME280;48842;51.046;13.796;2024-03-08T01:22:24;100958.13;;;5.86;nan
62800;BME280;48842;51.046;13.796;2024-03-08T01:24:49;100956.34;;;5.85;nan
62800;BME280;48842;51.046;13.796;2024-03-08T01:27:15;100955.44;;;5.83;nan
62800;BME280;48842;51.046;13.796;2024-03-08T01:29:40;100950.19;;;5.81;nan
62800;BME280;48842;51.046;13.796;2024-03-08T01:32:05;100953.56;;;5.79;nan
62800;BME280;48842;51.046;13.796;2024-03-08T01:34:31;100944.75;;;5.75;nan
62800;BME280;48842;51.046;13.796;2024-03-08T01:36:58;100933.38;;;5.71;nan
62800;BME280;48842;51.046;13.796;2024-03-08T01:39:23;100940.22;;;5.69;nan
62800;BME280;48842;51.046;13.796;2024-03-08T01:41:48;100940.13;;;5.66;nan
62800;BME280;48842;51.046;13.796;2024-03-08T01:44:14;100934.06;;;5.66;nan
62800;BME280;48842;51.046;13.796;2024-03-08T01:46:46;100926.22;;;5.64;nan
62800;BME280;48842;51.046;13.796;2024-03-08T01:49:13;100925.25;;;5.62;nan
62800;BME280;48842;51.046;13.796;2024-03-08T01:51:40;100925.16;;;5.59;nan
62800;BME280;48842;51.046;13.796;2024-03-08T01:54:06;100921.69;;;5.58;nan
62800;BME280;48842;51.046;13.796;2024-03-08T01:56:32;100922.50;;;5.57;nan
62800;BME280;48842;51.046;13.796;2024-03-08T01:58:59;100924.25;;;5.57;nan
62800;BME280;48842;51.046;13.796;2024-03-08T02:01:25;100924.16;;;5.54;nan
62800;BME280;48842;51.046;13.796;2024-03-08T02:03:51;100916.25;;;5.51;nan
62800;BME280;48842;51.046;13.796;2024-03-08T02:06:16;100912.63;;;5.47;nan
62800;BME280;48842;51.046;13.796;2024-03-08T02:08:43;100923.81;;;5.45;nan
62800;BME280;48842;51.046;13.796;2024-03-08T02:11:12;100922.00;;;5.42;nan
62800;BME280;48842;51.046;13.796;2024-03-08T02:13:37;100920.19;;;5.39;nan
62800;BME280;48842;51.046;13.796;2024-03-08T02:16:03;100919.31;;;5.39;nan
62800;BME280;48842;51.046;13.796;2024-03-08T02:18:30;100917.53;;;5.38;nan
62800;BME280;48842;51.046;13.796;2024-03-08T02:20:56;100915.72;;;5.35;nan
62800;BME280;48842;51.046;13.796;2024-03-08T02:23:23;100912.19;;;5.33;nan
62800;BME280;48842;51.046;13.796;2024-03-08T02:25:50;100899.97;;;5.31;nan
62800;BME280;48842;51.046;13.796;2024-03-08T02:28:15;100912.91;;;5.29;nan
62800;BME280;48842;51.046;13.796;2024-03-08T02:30:45;100897.22;;;5.26;nan
62800;BME280;48842;51.046;13.796;2024-03-08T02:33:13;100900.53;;;5.22;nan
62800;BME280;48842;51.046;13.796;2024-03-08T02:35:38;100895.25;;;5.19;nan
62800;BME280;48842;51.046;13.796;2024-03-08T02:38:04;100892.53;;;5.16;nan
62800;BME280;48842;51.046;13.796;2024-03-08T02:40:29;100900.22;;;5.13;nan
62800;BME280;48842;51.046;13.796;2024-03-08T02:42:55;100898.34;;;5.09;nan
62800;BME280;48842;51.046;13.796;2024-03-08T02:45:20;100894.78;;;5.06;nan
62800;BME280;48842;51.046;13.796;2024-03-08T02:47:45;100895.59;;;5.04;nan
62800;BME280;48842;51.046;13.796;2024-03-08T02:50:11;100903.28;;;5.01;nan
62800;BME280;48842;51.046;13.796;2024-03-08T02:52:37;100900.59;;;4.99;nan
62800;BME280;48842;51.046;13.796;2024-03-08T02:55:02;100897.13;;;4.99;nan
62800;BME280;48842;51.046;13.796;2024-03-08T02:57:28;100901.44;;;4.98;nan
62800;BME280;48842;51.046;13.796;2024-03-08T02:59:53;100895.25;;;4.95;nan
62800;BME280;48842;51.046;13.796;2024-03-08T03:02:19;100899.47;;;4.91;nan
62800;BME280;48842;51.046;13.796;2024-03-08T03:04:44;100903.69;;;4.89;nan
62800;BME280;48842;51.046;13.796;2024-03-08T03:07:09;100895.78;;;4.86;nan
62800;BME280;48842;51.046;13.796;2024-03-08T03:09:36;100892.28;;;4.84;nan
62800;BME280;48842;51.046;13.796;2024-03-08T03:12:01;100894.81;;;4.82;nan
62800;BME280;48842;51.046;13.796;2024-03-08T03:14:27;100886.97;;;4.81;nan
62800;BME280;48842;51.046;13.796;2024-03-08T03:16:52;100891.22;;;4.79;nan
62800;BME280;48842;51.046;13.796;2024-03-08T03:19:19;100890.34;;;4.78;nan
62800;BME280;48842;51.046;13.796;2024-03-08T03:21:45;100888.50;;;4.76;nan
62800;BME280;48842;51.046;13.796;2024-03-08T03:24:10;100882.44;;;4.75;nan
62800;BME280;48842;51.046;13.796;2024-03-08T03:26:36;100886.66;;;4.73;nan
62800;BME280;48842;51.046;13.796;2024-03-08T03:29:05;100882.22;;;4.69;nan
62800;BME280;48842;51.046;13.796;2024-03-08T03:31:31;100883.00;;;4.66;nan
62800;BME280;48842;51.046;13.796;2024-03-08T03:33:56;100880.28;;;4.63;nan
62800;BME280;48842;51.046;13.796;2024-03-08T03:36:26;100880.22;;;4.62;nan
62800;BME280;48842;51.046;13.796;2024-03-08T03:38:53;100885.38;;;4.60;nan
62800;BME280;48842;51.046;13.796;2024-03-08T03:41:29;100881.81;;;4.58;nan
62800;BME280;48842;51.046;13.796;2024-03-08T03:43:55;100884.34;;;4.57;nan
62800;BME280;48842;51.046;13.796;2024-03-08T03:46:20;100878.22;;;4.54;nan
62800;BME280;48842;51.046;13.796;2024-03-08T03:48:46;100882.47;;;4.52;nan
62800;BME280;48842;51.046;13.796;2024-03-08T03:51:11;100877.22;;;4.51;nan
62800;BME280;48842;51.046;13.796;2024-03-08T03:53:36;100868.44;;;4.47;nan
62800;BME280;48842;51.046;13.796;2024-03-08T03:56:02;100881.31;;;4.44;nan
62800;BME280;48842;51.046;13.796;2024-03-08T03:58:27;100882.13;;;4.43;nan
62800;BME280;48842;51.046;13.796;2024-03-08T04:00:53;100882.94;;;4.42;nan
62800;BME280;48842;51.046;13.796;2024-03-08T04:03:20;100875.09;;;4.41;nan
62800;BME280;48842;51.046;13.796;2024-03-08T04:05:46;100872.41;;;4.37;nan
62800;BME280;48842;51.046;13.796;2024-03-08T04:08:11;100870.56;;;4.35;nan
62800;BME280;48842;51.046;13.796;2024-03-08T04:10:36;100875.69;;;4.33;nan
62800;BME280;48842;51.046;13.796;2024-03-08T04:13:02;100869.59;;;4.31;nan
62800;BME280;48842;51.046;13.796;2024-03-08T04:15:29;100870.41;;;4.30;nan
62800;BME280;48842;51.046;13.796;2024-03-08T04:17:54;100861.69;;;4.28;nan
62800;BME280;48842;51.046;13.796;2024-03-08T04:20:20;100872.94;;;4.29;nan
62800;BME280;48842;51.046;13.796;2024-03-08T04:22:46;100871.09;;;4.26;nan
62800;BME280;48842;51.046;13.796;2024-03-08T04:25:14;100877.09;;;4.24;nan
62800;BME280;48842;51.046;13.796;2024-03-08T04:27:39;100877.84;;;4.21;nan
62800;BME280;48842;51.046;13.796;2024-03-08T04:30:06;100876.06;;;4.20;nan
62800;BME280;48842;51.046;13.796;2024-03-08T04:32:34;100874.28;;;4.19;nan
62800;BME280;48842;51.046;13.796;2024-03-08T04:35:00;100865.56;;;4.17;nan
62800;BME280;48842;51.046;13.796;2024-03-08T04:37:28;100868.06;;;4.14;nan
62800;BME280;48842;51.046;13.796;2024-03-08T04:39:56;100868.88;;;4.13;nan
62800;BME280;48842;51.046;13.796;2024-03-08T04:42:24;100867.03;;;4.10;nan
62800;BME280;48842;51.046;13.796;2024-03-08T04:44:50;100862.69;;;4.09;nan
62800;BME280;48842;51.046;13.796;2024-03-08T04:47:15;100867.81;;;4.08;nan
62800;BME280;48842;51.046;13.796;2024-03-08T04:49:43;100860.00;;;4.06;nan
62800;BME280;48842;51.046;13.796;2024-03-08T04:52:08;100873.75;;;4.05;nan
62800;BME280;48842;51.046;13.796;2024-03-08T04:54:33;100864.22;;;4.04;nan
62800;BME280;48842;51.046;13.796;2024-03-08T04:57:00;100864.22;;;4.04;nan
62800;BME280;48842;51.046;13.796;2024-03-08T04:59:26;100860.75;;;4.04;nan
62800;BME280;48842;51.046;13.796;2024-03-08T05:01:52;100859.78;;;4.01;nan
62800;BME280;48842;51.046;13.796;2024-03-08T05:04:17;100862.38;;;4.01;nan
62800;BME280;48842;51.046;13.796;2024-03-08T05:06:43;100857.06;;;3.98;nan
62800;BME280;48842;51.046;13.796;2024-03-08T05:09:08;100851.84;;;3.97;nan
62800;BME280;48842;51.046;13.796;2024-03-08T05:11:41;100844.00;;;3.95;nan
62800;BME280;48842;51.046;13.796;2024-03-08T05:14:07;100856.03;;;3.93;nan
62800;BME280;48842;51.046;13.796;2024-03-08T05:16:33;100845.66;;;3.93;nan
62800;BME280;48842;51.046;13.796;2024-03-08T05:18:59;100846.47;;;3.92;nan
62800;BME280;48842;51.046;13.796;2024-03-08T05:21:24;100847.25;;;3.90;nan
62800;BME280;48842;51.046;13.796;2024-03-08T05:23:50;100850.69;;;3.89;nan
62800;BME280;48842;51.046;13.796;2024-03-08T05:26:16;100850.72;;;3.90;nan
62800;BME280;48842;51.046;13.796;2024-03-08T05:28:41;100843.03;;;3.92;nan
62800;BME280;48842;51.046;13.796;2024-03-08T05:31:07;100844.69;;;3.91;nan
62800;BME280;48842;51.046;13.796;2024-03-08T05:33:32;100847.34;;;3.93;nan
62800;BME280;48842;51.046;13.796;2024-03-08T05:36:00;100849.06;;;3.92;nan
62800;BME280;48842;51.046;13.796;2024-03-08T05:38:27;100849.94;;;3.93;nan
62800;BME280;48842;51.046;13.796;2024-03-08T05:40:53;100841.34;;;3.94;nan
62800;BME280;48842;51.046;13.796;2024-03-08T05:43:19;100843.06;;;3.93;nan
62800;BME280;48842;51.046;13.796;2024-03-08T05:45:45;100847.28;;;3.91;nan
62800;BME280;48842;51.046;13.796;2024-03-08T05:48:10;100841.25;;;3.91;nan
62800;BME280;48842;51.046;13.796;2024-03-08T05:50:37;100839.41;;;3.88;nan
62800;BME280;48842;51.046;13.796;2024-03-08T05:53:03;100839.41;;;3.88;nan
62800;BME280;48842;51.046;13.796;2024-03-08T05:55:32;100837.66;;;3.87;nan
62800;BME280;48842;51.046;13.796;2024-03-08T05:58:00;100843.06;;;3.93;nan
62800;BME280;48842;51.046;13.796;2024-03-08T06:00:26;100842.38;;;3.97;nan
62800;BME280;48842;51.046;13.796;2024-03-08T06:02:51;100845.09;;;4.00;nan
62800;BME280;48842;51.046;13.796;2024-03-08T06:05:16;100845.09;;;4.00;nan
62800;BME280;48842;51.046;13.796;2024-03-08T06:07:42;100843.41;;;4.02;nan
62800;BME280;48842;51.046;13.796;2024-03-08T06:10:09;100843.47;;;4.04;nan
62800;BME280;48842;51.046;13.796;2024-03-08T06:12:35;100844.38;;;4.05;nan
62800;BME280;48842;51.046;13.796;2024-03-08T06:15:06;100847.91;;;4.07;nan
62800;BME280;48842;51.046;13.796;2024-03-08T06:17:31;100848.88;;;4.10;nan
62800;BME280;48842;51.046;13.796;2024-03-08T06:19:56;100844.72;;;4.14;nan
62800;BME280;48842;51.046;13.796;2024-03-08T06:22:21;100842.53;;;4.25;nan
62800;BME280;48842;51.046;13.796;2024-03-08T06:24:47;100837.53;;;4.29;nan
62800;BME280;48842;51.046;13.796;2024-03-08T06:27:12;100838.59;;;4.34;nan
62800;BME280;48842;51.046;13.796;2024-03-08T06:29:37;100837.94;;;4.40;nan
62800;BME280;48842;51.046;13.796;2024-03-08T06:32:03;100840.69;;;4.45;nan
62800;BME280;48842;51.046;13.796;2024-03-08T06:34:28;100833.00;;;4.48;nan
62800;BME280;48842;51.046;13.796;2024-03-08T06:36:53;100833.13;;;4.51;nan
62800;BME280;48842;51.046;13.796;2024-03-08T06:39:25;100835.81;;;4.54;nan
62800;BME280;48842;51.046;13.796;2024-03-08T06:41:51;100836.78;;;4.56;nan
62800;BME280;48842;51.046;13.796;2024-03-08T06:44:16;100829.09;;;4.59;nan
62800;BME280;48842;51.046;13.796;2024-03-08T06:46:41;100824.84;;;4.61;nan
62800;BME280;48842;51.046;13.796;2024-03-08T06:49:07;100827.53;;;4.64;nan
62800;BME280;48842;51.046;13.796;2024-03-08T06:51:32;100827.78;;;4.70;nan
62800;BME280;48842;51.046;13.796;2024-03-08T06:53:58;100822.75;;;4.75;nan
62800;BME280;48842;51.046;13.796;2024-03-08T06:56:23;100822.03;;;4.79;nan
62800;BME280;48842;51.046;13.796;2024-03-08T06:58:48;100814.31;;;4.81;nan
62800;BME280;48842;51.046;13.796;2024-03-08T07:01:14;100814.41;;;4.84;nan
62800;BME280;48842;51.046;13.796;2024-03-08T07:03:41;100811.00;;;4.85;nan
62800;BME280;48842;51.046;13.796;2024-03-08T07:06:12;100820.63;;;4.89;nan
62800;BME280;48842;51.046;13.796;2024-03-08T07:08:37;100814.72;;;4.93;nan
62800;BME280;48842;51.046;13.796;2024-03-08T07:11:02;100812.22;;;4.96;nan
62800;BME280;48842;51.046;13.796;2024-03-08T07:13:28;100821.03;;;5.00;nan
62800;BME280;48842;51.046;13.796;2024-03-08T07:15:54;100808.19;;;5.04;nan
62800;BME280;48842;51.046;13.796;2024-03-08T07:18:20;100806.66;;;5.10;nan
62800;BME280;48842;51.046;13.796;2024-03-08T07:20:47;100793.88;;;5.16;nan
62800;BME280;48842;51.046;13.796;2024-03-08T07:23:12;100798.44;;;5.23;nan
62800;BME280;48842;51.046;13.796;2024-03-08T07:25:57;100798.63;;;5.29;nan
62800;BME280;48842;51.046;13.796;2024-03-08T07:28:23;100804.00;;;5.35;nan
62800;BME280;48842;51.046;13.796;2024-03-08T07:30:48;100805.97;;;5.42;nan
62800;BME280;48842;51.046;13.796;2024-03-08T07:33:13;100803.63;;;5.50;nan
62800;BME280;48842;51.046;13.796;2024-03-08T07:35:39;100799.56;;;5.58;nan
62800;BME280;48842;51.046;13.796;2024-03-08T07:38:08;100787.66;;;5.65;nan
62800;BME280;48842;51.046;13.796;2024-03-08T07:40:38;100794.81;;;5.72;nan
62800;BME280;48842;51.046;13.796;2024-03-08T07:43:06;100795.00;;;5.79;nan
62800;BME280;48842;51.046;13.796;2024-03-08T07:45:32;100790.03;;;5.86;nan
62800;BME280;48842;51.046;13.796;2024-03-08T07:47:57;100784.22;;;5.95;nan
62800;BME280;48842;51.046;13.796;2024-03-08T07:50:24;100786.38;;;6.08;nan
62800;BME280;48842;51.046;13.796;2024-03-08T07:52:49;100784.97;;;6.20;nan
62800;BME280;48842;51.046;13.796;2024-03-08T07:55:15;100783.44;;;6.26;nan
62800;BME280;48842;51.046;13.796;2024-03-08T07:57:40;100780.97;;;6.31;nan
62800;BME280;48842;51.046;13.796;2024-03-08T08:00:06;100782.88;;;6.37;nan
62800;BME280;48842;51.046;13.796;2024-03-08T08:02:33;100776.88;;;6.41;nan
62800;BME280;48842;51.046;13.796;2024-03-08T08:04:59;100777.97;;;6.47;nan
62800;BME280;48842;51.046;13.796;2024-03-08T08:07:24;100775.50;;;6.54;nan
62800;BME280;48842;51.046;13.796;2024-03-08T08:09:49;100781.91;;;6.65;nan
62800;BME280;48842;51.046;13.796;2024-03-08T08:12:15;100773.41;;;6.72;nan
62800;BME280;48842;51.046;13.796;2024-03-08T08:14:41;100766.69;;;6.80;nan
62800;BME280;48842;51.046;13.796;2024-03-08T08:17:07;100767.75;;;6.89;nan
62800;BME280;48842;51.046;13.796;2024-03-08T08:19:34;100766.22;;;6.95;nan
62800;BME280;48842;51.046;13.796;2024-03-08T08:22:00;100759.47;;;7.04;nan
62800;BME280;48842;51.046;13.796;2024-03-08T08:24:26;100758.81;;;7.12;nan
62800;BME280;48842;51.046;13.796;2024-03-08T08:26:52;100752.91;;;7.20;nan
62800;BME280;48842;51.046;13.796;2024-03-08T08:29:17;100747.00;;;7.27;nan
62800;BME280;48842;51.046;13.796;2024-03-08T08:31:43;100740.25;;;7.35;nan
62800;BME280;48842;51.046;13.796;2024-03-08T08:34:11;100749.16;;;7.43;nan
62800;BME280;48842;51.046;13.796;2024-03-08T08:36:37;100744.13;;;7.53;nan
62800;BME280;48842;51.046;13.796;2024-03-08T08:39:02;100737.38;;;7.61;nan
62800;BME280;48842;51.046;13.796;2024-03-08T08:41:28;100736.75;;;7.71;nan
62800;BME280;48842;51.046;13.796;2024-03-08T08:43:54;100726.53;;;7.82;nan
62800;BME280;48842;51.046;13.796;2024-03-08T08:46:19;100731.94;;;7.91;nan
62800;BME280;48842;51.046;13.796;2024-03-08T08:48:46;100729.53;;;8.00;nan
62800;BME280;48842;51.046;13.796;2024-03-08T08:51:11;100721.03;;;8.09;nan
62800;BME280;48842;51.046;13.796;2024-03-08T08:53:38;100713.41;;;8.20;nan
62800;BME280;48842;51.046;13.796;2024-03-08T08:56:03;100712.63;;;8.26;nan
62800;BME280;48842;51.046;13.796;2024-03-08T08:58:29;100709.28;;;8.33;nan
62800;BME280;48842;51.046;13.796;2024-03-08T09:00:54;100706.81;;;8.41;nan
62800;BME280;48842;51.046;13.796;2024-03-08T09:03:20;100701.75;;;8.47;nan
62800;BME280;48842;51.046;13.796;2024-03-08T09:05:45;100697.50;;;8.52;nan
62800;BME280;48842;51.046;13.796;2024-03-08T09:08:10;100697.56;;;8.55;nan
62800;BME280;48842;51.046;13.796;2024-03-08T09:10:36;100700.22;;;8.58;nan
62800;BME280;48842;51.046;13.796;2024-03-08T09:13:01;100697.69;;;8.63;nan
62800;BME280;48842;51.046;13.796;2024-03-08T09:15:29;100693.44;;;8.68;nan
62800;BME280;48842;51.046;13.796;2024-03-08T09:17:54;100687.41;;;8.72;nan
62800;BME280;48842;51.046;13.796;2024-03-08T09:20:20;100690.97;;;8.77;nan
62800;BME280;48842;51.046;13.796;2024-03-08T09:22:46;100694.56;;;8.84;nan
62800;BME280;48842;51.046;13.796;2024-03-08T09:25:11;100691.19;;;8.89;nan
62800;BME280;48842;51.046;13.796;2024-03-08T09:27:37;100686.91;;;8.96;nan
62800;BME280;48842;51.046;13.796;2024-03-08T09:30:03;100678.34;;;9.03;nan
62800;BME280;48842;51.046;13.796;2024-03-08T09:32:29;100676.69;;;9.08;nan
62800;BME280;48842;51.046;13.796;2024-03-08T09:34:54;100677.63;;;9.14;nan
62800;BME280;48842;51.046;13.796;2024-03-08T09:37:21;100673.38;;;9.20;nan
62800;BME280;48842;51.046;13.796;2024-03-08T09:39:46;100668.25;;;9.28;nan
62800;BME280;48842;51.046;13.796;2024-03-08T09:42:11;100665.72;;;9.34;nan
62800;BME280;48842;51.046;13.796;2024-03-08T09:44:43;100661.47;;;9.41;nan
62800;BME280;48842;51.046;13.796;2024-03-08T09:47:09;100661.53;;;9.46;nan
62800;BME280;48842;51.046;13.796;2024-03-08T09:49:39;100657.22;;;9.49;nan
62800;BME280;48842;51.046;13.796;2024-03-08T09:52:05;100660.78;;;9.54;nan
62800;BME280;48842;51.046;13.796;2024-03-08T09:54:30;100655.63;;;9.62;nan
62800;BME280;48842;51.046;13.796;2024-03-08T09:56:55;100652.25;;;9.69;nan
62800;BME280;48842;51.046;13.796;2024-03-08T09:59:20;100650.56;;;9.73;nan
62800;BME280;48842;51.046;13.796;2024-03-08T10:01:52;100644.53;;;9.78;nan
62800;BME280;48842;51.046;13.796;2024-03-08T10:04:17;100642.00;;;9.86;nan
62800;BME280;48842;51.046;13.796;2024-03-08T10:06:45;100645.59;;;9.94;nan
62800;BME280;48842;51.046;13.796;2024-03-08T10:09:12;100633.44;;;10.03;nan
62800;BME280;48842;51.046;13.796;2024-03-08T10:11:40;100637.84;;;10.07;nan
62800;BME280;48842;51.046;13.796;2024-03-08T10:14:05;100637.03;;;10.11;nan
62800;BME280;48842;51.046;13.796;2024-03-08T10:16:33;100636.19;;;10.13;nan
62800;BME280;48842;51.046;13.796;2024-03-08T10:18:59;100634.47;;;10.17;nan
62800;BME280;48842;51.046;13.796;2024-03-08T10:21:26;100626.66;;;10.20;nan
62800;BME280;48842;51.046;13.796;2024-03-08T10:23:51;100624.97;;;10.25;nan
62800;BME280;48842;51.046;13.796;2024-03-08T10:26:16;100622.38;;;10.30;nan
62800;BME280;48842;51.046;13.796;2024-03-08T10:28:50;100617.16;;;10.31;nan
62800;BME280;48842;51.046;13.796;2024-03-08T10:31:17;100615.47;;;10.35;nan
62800;BME280;48842;51.046;13.796;2024-03-08T10:33:43;100619.03;;;10.40;nan
62800;BME280;48842;51.046;13.796;2024-03-08T10:36:10;100617.34;;;10.45;nan
62800;BME280;48842;51.046;13.796;2024-03-08T10:38:40;100611.22;;;10.48;nan
62800;BME280;48842;51.046;13.796;2024-03-08T10:41:09;100600.78;;;10.51;nan
62800;BME280;48842;51.046;13.796;2024-03-08T10:47:02;100611.38;;;10.63;nan
62800;BME280;48842;51.046;13.796;2024-03-08T10:49:32;100595.72;;;10.73;nan
62800;BME280;48842;51.046;13.796;2024-03-08T10:52:04;100601.00;;;10.80;nan
62800;BME280;48842;51.046;13.796;2024-03-08T10:54:30;100588.81;;;10.84;nan
62800;BME280;48842;51.046;13.796;2024-03-08T10:56:57;100590.59;;;10.88;nan
62800;BME280;48842;51.046;13.796;2024-03-08T10:59:23;100588.00;;;10.91;nan
62800;BME280;48842;51.046;13.796;2024-03-08T11:01:49;100587.16;;;10.95;nan
62800;BME280;48842;51.046;13.796;2024-03-08T11:04:16;100587.19;;;11.02;nan
62800;BME280;48842;51.046;13.796;2024-03-08T11:06:45;100586.34;;;11.06;nan
62800;BME280;48842;51.046;13.796;2024-03-08T11:09:34;100590.75;;;11.10;nan
62800;BME280;48842;51.046;13.796;2024-03-08T11:12:20;100571.56;;;11.17;nan
62800;BME280;48842;51.046;13.796;2024-03-08T11:14:48;100574.19;;;11.22;nan
62800;BME280;48842;51.046;13.796;2024-03-08T11:17:22;100561.09;;;11.23;nan
62800;BME280;48842;51.046;13.796;2024-03-08T11:19:50;100566.34;;;11.26;nan
62800;BME280;48842;51.046;13.796;2024-03-08T11:22:27;100558.50;;;11.31;nan
62800;BME280;48842;51.046;13.796;2024-03-08T11:24:57;100550.66;;;11.39;nan
62800;BME280;48842;51.046;13.796;2024-03-08T11:27:30;100551.56;;;11.44;nan
62800;BME280;48842;51.046;13.796;2024-03-08T11:30:07;100542.84;;;11.48;nan
62800;BME280;48842;51.046;13.796;2024-03-08T11:32:37;100541.09;;;11.53;nan
62800;BME280;48842;51.046;13.796;2024-03-08T11:35:06;100531.50;;;11.58;nan
62800;BME280;48842;51.046;13.796;2024-03-08T11:37:33;100540.25;;;11.63;nan
62800;BME280;48842;51.046;13.796;2024-03-08T11:40:00;100529.75;;;11.66;nan
62800;BME280;48842;51.046;13.796;2024-03-08T11:42:28;100527.13;;;11.66;nan
62800;BME280;48842;51.046;13.796;2024-03-08T11:44:53;100523.63;;;11.69;nan
62800;BME280;48842;51.046;13.796;2024-03-08T11:47:21;100515.78;;;11.74;nan
62800;BME280;48842;51.046;13.796;2024-03-08T11:49:47;100514.91;;;11.79;nan
62800;BME280;48842;51.046;13.796;2024-03-08T11:52:16;100511.44;;;11.83;nan
62800;BME280;48842;51.046;13.796;2024-03-08T11:54:47;100505.31;;;11.86;nan
62800;BME280;48842;51.046;13.796;2024-03-08T11:57:16;100497.44;;;11.89;nan
62800;BME280;48842;51.046;13.796;2024-03-08T11:59:49;100497.47;;;11.95;nan
62800;BME280;48842;51.046;13.796;2024-03-08T12:02:14;100496.59;;;11.99;nan
62800;BME280;48842;51.046;13.796;2024-03-08T12:04:40;100493.13;;;12.03;nan
62800;BME280;48842;51.046;13.796;2024-03-08T12:07:09;100486.09;;;12.05;nan
62800;BME280;48842;51.046;13.796;2024-03-08T12:09:37;100479.09;;;12.09;nan
62800;BME280;48842;51.046;13.796;2024-03-08T12:12:03;100487.84;;;12.16;nan
62800;BME280;48842;51.046;13.796;2024-03-08T12:14:33;100478.22;;;12.22;nan
62800;BME280;48842;51.046;13.796;2024-03-08T12:16:58;100479.97;;;12.28;nan
62800;BME280;48842;51.046;13.796;2024-03-08T12:19:26;100475.56;;;12.33;nan
62800;BME280;48842;51.046;13.796;2024-03-08T12:21:54;100468.56;;;12.42;nan
62800;BME280;48842;51.046;13.796;2024-03-08T12:24:19;100469.41;;;12.47;nan
62800;BME280;48842;51.046;13.796;2024-03-08T12:26:45;100466.78;;;12.50;nan
62800;BME280;48842;51.046;13.796;2024-03-08T12:29:20;100468.53;;;12.54;nan
62800;BME280;48842;51.046;13.796;2024-03-08T12:31:48;100460.66;;;12.60;nan
62800;BME280;48842;51.046;13.796;2024-03-08T12:34:15;100458.00;;;12.66;nan
62800;BME280;48842;51.046;13.796;2024-03-08T12:36:48;100457.13;;;12.72;nan
62800;BME280;48842;51.046;13.796;2024-03-08T12:39:16;100439.56;;;12.75;nan
62800;BME280;48842;51.046;13.796;2024-03-08T12:41:42;100452.69;;;12.79;nan
62800;BME280;48842;51.046;13.796;2024-03-08T12:44:08;100447.44;;;12.82;nan
62800;BME280;48842;51.046;13.796;2024-03-08T12:46:37;100434.25;;;12.86;nan
62800;BME280;48842;51.046;13.796;2024-03-08T12:49:06;100432.50;;;12.91;nan
62800;BME280;48842;51.046;13.796;2024-03-08T12:51:31;100422.84;;;12.98;nan
62800;BME280;48842;51.046;13.796;2024-03-08T12:53:58;100424.56;;;13.02;nan
62800;BME280;48842;51.046;13.796;2024-03-08T12:56:31;100425.44;;;13.04;nan
62800;BME280;48842;51.046;13.796;2024-03-08T12:58:58;100422.81;;;13.04;nan
62800;BME280;48842;51.046;13.796;2024-03-08T13:01:23;100416.66;;;13.02;nan
62800;BME280;48842;51.046;13.796;2024-03-08T13:03:48;100411.41;;;13.04;nan
62800;BME280;48842;51.046;13.796;2024-03-08T13:06:14;100415.75;;;13.09;nan
62800;BME280;48842;51.046;13.796;2024-03-08T13:08:41;100406.13;;;13.13;nan